sensor_id;sensor_type;location;lat;lon;timestamp;pressure;altitude;pressure_sealevel;temperature;humidity
52591;BME280;38483;42.620;25.394;2023-01-29T00:02:11;97021.84;;;2.93;78.88
52591;BME280;38483;42.620;25.394;2023-01-29T00:04:38;97022.78;;;2.89;78.48
52591;BME280;38483;42.620;25.394;2023-01-29T00:07:05;97013.34;;;2.94;78.00
52591;BME280;38483;42.620;25.394;2023-01-29T00:09:33;97025.19;;;2.98;77.80
52591;BME280;38483;42.620;25.394;2023-01-29T00:12:00;97022.63;;;2.98;78.03
52591;BME280;38483;42.620;25.394;2023-01-29T00:14:27;97019.00;;;3.11;77.53
52591;BME280;38483;42.620;25.394;2023-01-29T00:16:54;97016.31;;;3.17;77.08
52591;BME280;38483;42.620;25.394;2023-01-29T00:19:21;97018.81;;;3.23;77.29
52591;BME280;38483;42.620;25.394;2023-01-29T00:21:49;97021.97;;;3.36;77.01
52591;BME280;38483;42.620;25.394;2023-01-29T00:24:16;97017.78;;;3.32;76.93
52591;BME280;38483;42.620;25.394;2023-01-29T00:26:43;97031.00;;;3.08;77.49
52591;BME280;38483;42.620;25.394;2023-01-29T00:29:11;97020.66;;;3.14;77.81
52591;BME280;38483;42.620;25.394;2023-01-29T00:31:38;97021.44;;;3.17;77.36
52591;BME280;38483;42.620;25.394;2023-01-29T00:34:06;97026.44;;;3.25;77.22
52591;BME280;38483;42.620;25.394;2023-01-29T00:36:32;97020.56;;;3.20;77.44
52591;BME280;38483;42.620;25.394;2023-01-29T00:39:00;97023.16;;;3.18;76.98
52591;BME280;38483;42.620;25.394;2023-01-29T00:41:37;97026.38;;;3.29;76.73
52591;BME280;38483;42.620;25.394;2023-01-29T00:44:22;97016.97;;;3.30;77.37
52591;BME280;38483;42.620;25.394;2023-01-29T00:47:08;97033.13;;;3.34;77.12
52591;BME280;38483;42.620;25.394;2023-01-29T00:49:55;97024.50;;;3.38;77.63
52591;BME280;38483;42.620;25.394;2023-01-29T00:52:22;97033.59;;;3.54;77.08
52591;BME280;38483;42.620;25.394;2023-01-29T00:54:52;97031.16;;;3.48;76.91
52591;BME280;38483;42.620;25.394;2023-01-29T00:57:20;97030.53;;;3.35;77.86
52591;BME280;38483;42.620;25.394;2023-01-29T00:59:47;97024.50;;;3.38;77.87
52591;BME280;38483;42.620;25.394;2023-01-29T01:02:14;97032.19;;;3.36;77.96
52591;BME280;38483;42.620;25.394;2023-01-29T01:05:00;97033.38;;;3.18;79.20
52591;BME280;38483;42.620;25.394;2023-01-29T01:07:32;97040.66;;;2.92;80.04
52591;BME280;38483;42.620;25.394;2023-01-29T01:09:59;97040.47;;;3.01;80.14
52591;BME280;38483;42.620;25.394;2023-01-29T01:12:45;97042.94;;;3.07;80.63
52591;BME280;38483;42.620;25.394;2023-01-29T01:15:12;97027.47;;;3.15;80.13
52591;BME280;38483;42.620;25.394;2023-01-29T01:17:39;97035.22;;;3.10;80.47
52591;BME280;38483;42.620;25.394;2023-01-29T01:20:07;97032.69;;;3.07;81.34
52591;BME280;38483;42.620;25.394;2023-01-29T01:22:35;97030.94;;;3.12;81.74
52591;BME280;38483;42.620;25.394;2023-01-29T01:25:03;97027.44;;;3.16;82.29
52591;BME280;38483;42.620;25.394;2023-01-29T01:27:30;97042.75;;;3.18;81.34
52591;BME280;38483;42.620;25.394;2023-01-29T01:29:58;97046.47;;;2.99;81.29
52591;BME280;38483;42.620;25.394;2023-01-29T01:32:25;97053.97;;;3.09;82.16
52591;BME280;38483;42.620;25.394;2023-01-29T01:34:52;97053.94;;;3.12;81.37
52591;BME280;38483;42.620;25.394;2023-01-29T01:37:19;97050.81;;;2.95;82.24
52591;BME280;38483;42.620;25.394;2023-01-29T01:39:46;97045.50;;;3.09;82.15
52591;BME280;38483;42.620;25.394;2023-01-29T01:42:14;97053.63;;;3.30;81.07
52591;BME280;38483;42.620;25.394;2023-01-29T01:45:00;97050.25;;;3.28;80.72
52591;BME280;38483;42.620;25.394;2023-01-29T01:53:05;97044.94;;;2.89;81.75
52591;BME280;38483;42.620;25.394;2023-01-29T01:55:34;97054.13;;;3.02;82.03
52591;BME280;38483;42.620;25.394;2023-01-29T01:58:08;97055.03;;;2.98;82.25
52591;BME280;38483;42.620;25.394;2023-01-29T02:00:38;97064.94;;;3.19;81.45
52591;BME280;38483;42.620;25.394;2023-01-29T02:03:06;97056.53;;;3.09;80.95
52591;BME280;38483;42.620;25.394;2023-01-29T02:05:54;97067.34;;;3.26;80.84
52591;BME280;38483;42.620;25.394;2023-01-29T02:08:57;97065.69;;;3.25;80.93
52591;BME280;38483;42.620;25.394;2023-01-29T02:11:45;97062.47;;;3.11;80.62
52591;BME280;38483;42.620;25.394;2023-01-29T02:14:12;97065.69;;;3.24;80.11
52591;BME280;38483;42.620;25.394;2023-01-29T02:16:40;97067.34;;;3.26;79.43
52591;BME280;38483;42.620;25.394;2023-01-29T02:19:16;97060.56;;;3.25;78.72
52591;BME280;38483;42.620;25.394;2023-01-29T02:30:08;97066.78;;;3.11;77.82
52591;BME280;38483;42.620;25.394;2023-01-29T02:33:00;97073.31;;;3.27;77.85
52591;BME280;38483;42.620;25.394;2023-01-29T02:35:31;97060.47;;;3.30;77.47
52591;BME280;38483;42.620;25.394;2023-01-29T02:41:04;97073.06;;;3.41;78.47
52591;BME280;38483;42.620;25.394;2023-01-29T02:43:50;97074.72;;;3.45;79.42
52591;BME280;38483;42.620;25.394;2023-01-29T02:46:34;97064.34;;;3.52;78.99
52591;BME280;38483;42.620;25.394;2023-01-29T02:49:31;97067.03;;;3.46;78.83
52591;BME280;38483;42.620;25.394;2023-01-29T02:52:26;97074.59;;;3.52;79.83
52591;BME280;38483;42.620;25.394;2023-01-29T02:55:20;97063.63;;;3.46;79.57
52591;BME280;38483;42.620;25.394;2023-01-29T02:57:51;97074.19;;;3.26;80.59
52591;BME280;38483;42.620;25.394;2023-01-29T03:00:44;97069.63;;;3.43;80.74
52591;BME280;38483;42.620;25.394;2023-01-29T03:08:39;97072.97;;;3.47;82.14
52591;BME280;38483;42.620;25.394;2023-01-29T03:11:14;97076.25;;;3.53;81.62
52591;BME280;38483;42.620;25.394;2023-01-29T03:16:25;97080.94;;;3.32;82.92
52591;BME280;38483;42.620;25.394;2023-01-29T03:21:43;97060.75;;;3.13;84.86
52591;BME280;38483;42.620;25.394;2023-01-29T03:24:20;97082.03;;;3.15;84.79
52591;BME280;38483;42.620;25.394;2023-01-29T03:27:11;97087.03;;;3.21;85.44
52591;BME280;38483;42.620;25.394;2023-01-29T03:29:59;97082.94;;;3.11;85.39
52591;BME280;38483;42.620;25.394;2023-01-29T03:33:19;97093.06;;;3.17;86.44
52591;BME280;38483;42.620;25.394;2023-01-29T03:35:54;97098.13;;;3.23;86.23
52591;BME280;38483;42.620;25.394;2023-01-29T03:38:22;97093.03;;;3.20;86.07
52591;BME280;38483;42.620;25.394;2023-01-29T03:41:09;97094.72;;;3.21;85.74
52591;BME280;38483;42.620;25.394;2023-01-29T03:46:56;97096.38;;;3.25;86.57
52591;BME280;38483;42.620;25.394;2023-01-29T03:49:48;97107.34;;;3.32;86.04
52591;BME280;38483;42.620;25.394;2023-01-29T03:52:27;97100.75;;;3.19;86.33
52591;BME280;38483;42.620;25.394;2023-01-29T04:00:30;97106.94;;;3.04;87.27
52591;BME280;38483;42.620;25.394;2023-01-29T04:03:25;97107.06;;;2.95;87.83
52591;BME280;38483;42.620;25.394;2023-01-29T04:06:08;97112.16;;;2.97;88.22
52591;BME280;38483;42.620;25.394;2023-01-29T04:09:02;97117.41;;;2.89;88.75
52591;BME280;38483;42.620;25.394;2023-01-29T04:11:32;97112.09;;;3.01;88.26
52591;BME280;38483;42.620;25.394;2023-01-29T04:14:03;97111.59;;;2.80;88.45
52591;BME280;38483;42.620;25.394;2023-01-29T04:16:34;97119.91;;;2.94;88.54
52591;BME280;38483;42.620;25.394;2023-01-29T04:19:19;97115.63;;;2.94;87.90
52591;BME280;38483;42.620;25.394;2023-01-29T04:21:49;97105.50;;;2.88;88.16
52591;BME280;38483;42.620;25.394;2023-01-29T04:24:19;97120.06;;;2.82;88.98
52591;BME280;38483;42.620;25.394;2023-01-29T04:32:27;97121.84;;;2.77;88.57
52591;BME280;38483;42.620;25.394;2023-01-29T04:35:00;97131.34;;;2.67;89.62
52591;BME280;38483;42.620;25.394;2023-01-29T04:40:09;97140.66;;;2.73;88.84
52591;BME280;38483;42.620;25.394;2023-01-29T04:42:52;97127.00;;;2.74;89.29
52591;BME280;38483;42.620;25.394;2023-01-29T04:45:47;97138.13;;;2.71;90.19
52591;BME280;38483;42.620;25.394;2023-01-29T04:48:27;97143.25;;;2.68;90.54
52591;BME280;38483;42.620;25.394;2023-01-29T04:51:21;97146.53;;;2.79;90.51
52591;BME280;38483;42.620;25.394;2023-01-29T04:59:18;97150.69;;;2.85;90.36
52591;BME280;38483;42.620;25.394;2023-01-29T05:01:47;97146.41;;;2.88;90.07
52591;BME280;38483;42.620;25.394;2023-01-29T05:04:17;97106.97;;;2.43;90.39
52591;BME280;38483;42.620;25.394;2023-01-29T05:06:47;97144.13;;;2.67;90.55
52591;BME280;38483;42.620;25.394;2023-01-29T05:09:15;97150.88;;;2.73;90.16
52591;BME280;38483;42.620;25.394;2023-01-29T05:11:45;97146.69;;;2.67;90.71
52591;BME280;38483;42.620;25.394;2023-01-29T05:14:16;97162.88;;;2.66;90.53
52591;BME280;38483;42.620;25.394;2023-01-29T05:16:46;97171.44;;;2.65;90.69
52591;BME280;38483;42.620;25.394;2023-01-29T05:19:16;97170.91;;;2.39;91.79
52591;BME280;38483;42.620;25.394;2023-01-29T05:21:46;97183.66;;;2.40;92.41
52591;BME280;38483;42.620;25.394;2023-01-29T05:24:24;97183.53;;;2.51;92.61
52591;BME280;38483;42.620;25.394;2023-01-29T05:26:52;97179.44;;;2.38;92.83
52591;BME280;38483;42.620;25.394;2023-01-29T05:29:44;97179.31;;;2.48;92.71
52591;BME280;38483;42.620;25.394;2023-01-29T05:32:13;97191.28;;;2.45;92.72
52591;BME280;38483;42.620;25.394;2023-01-29T05:34:41;97179.44;;;2.35;92.58
52591;BME280;38483;42.620;25.394;2023-01-29T05:37:09;97195.44;;;2.52;92.29
52591;BME280;38483;42.620;25.394;2023-01-29T05:39:36;97194.75;;;2.38;91.82
52591;BME280;38483;42.620;25.394;2023-01-29T05:42:03;97195.53;;;2.44;92.06
52591;BME280;38483;42.620;25.394;2023-01-29T05:44:30;97197.16;;;2.53;91.72
52591;BME280;38483;42.620;25.394;2023-01-29T05:46:57;97208.28;;;2.49;91.92
52591;BME280;38483;42.620;25.394;2023-01-29T05:49:24;97209.78;;;2.65;91.38
52591;BME280;38483;42.620;25.394;2023-01-29T05:51:51;97208.16;;;2.60;90.21
52591;BME280;38483;42.620;25.394;2023-01-29T05:54:18;97218.38;;;2.58;90.59
52591;BME280;38483;42.620;25.394;2023-01-29T05:56:45;97213.25;;;2.58;90.17
52591;BME280;38483;42.620;25.394;2023-01-29T05:59:14;97216.66;;;2.59;90.25
52591;BME280;38483;42.620;25.394;2023-01-29T06:01:41;97220.09;;;2.58;90.30
52591;BME280;38483;42.620;25.394;2023-01-29T06:04:08;97223.34;;;2.70;89.22
52591;BME280;38483;42.620;25.394;2023-01-29T06:06:35;97232.78;;;2.65;88.90
52591;BME280;38483;42.620;25.394;2023-01-29T06:09:02;97220.03;;;2.62;88.82
52591;BME280;38483;42.620;25.394;2023-01-29T06:11:29;97233.84;;;2.49;89.52
52591;BME280;38483;42.620;25.394;2023-01-29T06:13:56;97235.72;;;2.32;90.45
52591;BME280;38483;42.620;25.394;2023-01-29T06:16:23;97236.84;;;2.02;91.42
52591;BME280;38483;42.620;25.394;2023-01-29T06:18:50;97235.09;;;2.09;92.39
52591;BME280;38483;42.620;25.394;2023-01-29T06:21:17;97238.41;;;2.20;92.22
52591;BME280;38483;42.620;25.394;2023-01-29T06:23:45;97245.84;;;2.41;91.53
52591;BME280;38483;42.620;25.394;2023-01-29T06:26:14;97238.81;;;2.58;90.91
52591;BME280;38483;42.620;25.394;2023-01-29T06:28:42;97241.31;;;2.64;90.15
52591;BME280;38483;42.620;25.394;2023-01-29T06:31:10;97247.38;;;2.57;90.20
52591;BME280;38483;42.620;25.394;2023-01-29T06:33:58;97217.66;;;2.47;90.54
52591;BME280;38483;42.620;25.394;2023-01-29T06:36:25;97248.13;;;2.65;90.51
52591;BME280;38483;42.620;25.394;2023-01-29T06:38:52;97248.91;;;2.70;89.86
52591;BME280;38483;42.620;25.394;2023-01-29T06:41:20;97258.94;;;2.88;89.53
52591;BME280;38483;42.620;25.394;2023-01-29T06:43:52;97260.69;;;2.83;89.77
52591;BME280;38483;42.620;25.394;2023-01-29T06:46:19;97256.47;;;2.79;89.42
52591;BME280;38483;42.620;25.394;2023-01-29T06:48:48;97268.25;;;2.92;89.26
52591;BME280;38483;42.620;25.394;2023-01-29T06:51:15;97271.78;;;2.82;89.30
52591;BME280;38483;42.620;25.394;2023-01-29T06:53:43;97265.00;;;2.80;89.70
52591;BME280;38483;42.620;25.394;2023-01-29T06:56:15;97245.66;;;2.58;89.19
52591;BME280;38483;42.620;25.394;2023-01-29T06:58:43;97265.13;;;2.69;90.01
52591;BME280;38483;42.620;25.394;2023-01-29T07:01:11;97268.34;;;2.83;89.94
52591;BME280;38483;42.620;25.394;2023-01-29T07:03:58;97279.38;;;2.88;89.85
52591;BME280;38483;42.620;25.394;2023-01-29T07:06:27;97280.09;;;3.01;89.03
52591;BME280;38483;42.620;25.394;2023-01-29T07:08:54;97271.84;;;2.78;90.00
52591;BME280;38483;42.620;25.394;2023-01-29T07:11:21;97276.84;;;2.85;89.98
52591;BME280;38483;42.620;25.394;2023-01-29T07:13:48;97281.81;;;2.97;89.71
52591;BME280;38483;42.620;25.394;2023-01-29T07:16:16;97275.78;;;3.01;89.21
52591;BME280;38483;42.620;25.394;2023-01-29T07:18:46;97272.63;;;2.84;88.68
52591;BME280;38483;42.620;25.394;2023-01-29T07:21:13;97266.63;;;2.85;88.93
52591;BME280;38483;42.620;25.394;2023-01-29T07:23:40;97280.75;;;3.13;88.66
52591;BME280;38483;42.620;25.394;2023-01-29T07:26:09;97278.94;;;3.21;89.10
52591;BME280;38483;42.620;25.394;2023-01-29T07:28:37;97287.47;;;3.23;88.49
52591;BME280;38483;42.620;25.394;2023-01-29T07:31:06;97293.56;;;3.12;88.45
52591;BME280;38483;42.620;25.394;2023-01-29T07:33:33;97291.19;;;2.98;88.89
52591;BME280;38483;42.620;25.394;2023-01-29T07:36:00;97279.16;;;3.06;88.62
52591;BME280;38483;42.620;25.394;2023-01-29T07:38:27;97294.25;;;3.27;88.90
52591;BME280;38483;42.620;25.394;2023-01-29T07:40:54;97296.72;;;3.34;88.63
52591;BME280;38483;42.620;25.394;2023-01-29T07:43:21;97278.66;;;3.43;87.71
52591;BME280;38483;42.620;25.394;2023-01-29T07:45:50;97290.03;;;3.23;87.70
52591;BME280;38483;42.620;25.394;2023-01-29T07:48:18;97301.94;;;3.24;87.90
52591;BME280;38483;42.620;25.394;2023-01-29T07:50:53;97285.75;;;3.22;88.04
52591;BME280;38483;42.620;25.394;2023-01-29T07:53:21;97309.38;;;3.43;88.08
52591;BME280;38483;42.620;25.394;2023-01-29T07:55:48;97308.53;;;3.41;87.41
52591;BME280;38483;42.620;25.394;2023-01-29T07:58:15;97305.25;;;3.33;86.73
52591;BME280;38483;42.620;25.394;2023-01-29T08:00:42;97318.81;;;3.39;87.10
52591;BME280;38483;42.620;25.394;2023-01-29T08:03:15;97316.22;;;3.41;87.04
52591;BME280;38483;42.620;25.394;2023-01-29T08:05:43;97315.72;;;3.14;87.26
52591;BME280;38483;42.620;25.394;2023-01-29T08:08:11;97319.84;;;3.24;87.59
52591;BME280;38483;42.620;25.394;2023-01-29T08:10:39;97305.09;;;3.43;87.17
52591;BME280;38483;42.620;25.394;2023-01-29T08:13:06;97319.56;;;3.47;86.35
52591;BME280;38483;42.620;25.394;2023-01-29T08:15:34;97319.34;;;3.61;85.18
52591;BME280;38483;42.620;25.394;2023-01-29T08:18:21;97312.66;;;3.51;85.17
52591;BME280;38483;42.620;25.394;2023-01-29T08:20:48;97319.75;;;3.34;85.89
52591;BME280;38483;42.620;25.394;2023-01-29T08:23:18;97309.84;;;3.06;85.68
52591;BME280;38483;42.620;25.394;2023-01-29T08:25:46;97318.13;;;3.26;85.91
52591;BME280;38483;42.620;25.394;2023-01-29T08:28:13;97319.69;;;3.37;86.06
52591;BME280;38483;42.620;25.394;2023-01-29T08:30:40;97319.44;;;3.56;84.70
52591;BME280;38483;42.620;25.394;2023-01-29T08:33:07;97324.56;;;3.55;84.24
52591;BME280;38483;42.620;25.394;2023-01-29T08:35:35;97324.47;;;3.62;84.55
52591;BME280;38483;42.620;25.394;2023-01-29T08:38:03;97329.44;;;3.73;84.30
52591;BME280;38483;42.620;25.394;2023-01-29T08:40:32;97326.13;;;3.65;84.17
52591;BME280;38483;42.620;25.394;2023-01-29T08:43:02;97317.59;;;3.63;83.55
52591;BME280;38483;42.620;25.394;2023-01-29T08:45:35;97329.34;;;3.79;83.82
52591;BME280;38483;42.620;25.394;2023-01-29T08:48:03;97322.34;;;3.90;82.55
52591;BME280;38483;42.620;25.394;2023-01-29T08:50:31;97323.84;;;4.03;82.94
52591;BME280;38483;42.620;25.394;2023-01-29T08:53:04;97333.03;;;4.14;83.32
52591;BME280;38483;42.620;25.394;2023-01-29T08:55:38;97332.94;;;4.21;84.23
52591;BME280;38483;42.620;25.394;2023-01-29T08:58:08;97336.41;;;4.20;83.36
52591;BME280;38483;42.620;25.394;2023-01-29T09:00:37;97328.81;;;4.13;82.68
52591;BME280;38483;42.620;25.394;2023-01-29T09:03:04;97323.63;;;4.18;82.73
52591;BME280;38483;42.620;25.394;2023-01-29T09:05:35;97328.84;;;4.12;83.37
52591;BME280;38483;42.620;25.394;2023-01-29T09:08:02;97338.81;;;4.27;82.81
52591;BME280;38483;42.620;25.394;2023-01-29T09:10:29;97336.13;;;4.36;82.96
52591;BME280;38483;42.620;25.394;2023-01-29T09:12:56;97322.44;;;4.36;83.05
52591;BME280;38483;42.620;25.394;2023-01-29T09:15:23;97330.06;;;4.40;82.65
52591;BME280;38483;42.620;25.394;2023-01-29T09:17:51;97293.72;;;4.17;82.84
52591;BME280;38483;42.620;25.394;2023-01-29T09:20:19;97338.44;;;4.50;81.70
52591;BME280;38483;42.620;25.394;2023-01-29T09:22:47;97335.91;;;4.48;81.52
52591;BME280;38483;42.620;25.394;2023-01-29T09:25:15;97329.84;;;4.52;80.94
52591;BME280;38483;42.620;25.394;2023-01-29T09:27:42;97340.16;;;4.49;80.90
52591;BME280;38483;42.620;25.394;2023-01-29T09:30:10;97325.72;;;4.44;80.38
52591;BME280;38483;42.620;25.394;2023-01-29T09:32:37;97324.06;;;4.41;80.82
52591;BME280;38483;42.620;25.394;2023-01-29T09:35:22;97324.56;;;4.61;79.28
52591;BME280;38483;42.620;25.394;2023-01-29T09:37:50;97323.59;;;4.67;79.19
52591;BME280;38483;42.620;25.394;2023-01-29T09:46:21;97313.97;;;4.79;80.99
52591;BME280;38483;42.620;25.394;2023-01-29T09:48:57;97303.50;;;4.88;81.41
52591;BME280;38483;42.620;25.394;2023-01-29T09:51:31;97299.56;;;4.74;82.04
52591;BME280;38483;42.620;25.394;2023-01-29T09:54:22;97312.75;;;4.97;81.30
52591;BME280;38483;42.620;25.394;2023-01-29T09:56:55;97295.25;;;4.74;82.32
52591;BME280;38483;42.620;25.394;2023-01-29T09:59:25;97285.28;;;4.59;82.61
52591;BME280;38483;42.620;25.394;2023-01-29T10:02:09;97308.44;;;4.55;82.58
52591;BME280;38483;42.620;25.394;2023-01-29T10:10:26;97292.75;;;4.24;82.96
52591;BME280;38483;42.620;25.394;2023-01-29T10:13:14;97287.28;;;3.92;84.40
52591;BME280;38483;42.620;25.394;2023-01-29T10:18:37;97289.41;;;4.19;83.85
52591;BME280;38483;42.620;25.394;2023-01-29T10:23:47;97270.59;;;4.66;81.38
52591;BME280;38483;42.620;25.394;2023-01-29T10:26:23;97273.38;;;4.57;78.59
52591;BME280;38483;42.620;25.394;2023-01-29T10:28:55;97274.00;;;4.68;78.89
52591;BME280;38483;42.620;25.394;2023-01-29T10:31:29;97279.16;;;4.66;77.16
52591;BME280;38483;42.620;25.394;2023-01-29T10:34:16;97269.03;;;4.59;75.44
52591;BME280;38483;42.620;25.394;2023-01-29T10:36:47;97264.69;;;4.62;76.58
52591;BME280;38483;42.620;25.394;2023-01-29T10:39:22;97266.53;;;4.57;78.09
52591;BME280;38483;42.620;25.394;2023-01-29T10:59:10;97249.31;;;4.62;76.06
52591;BME280;38483;42.620;25.394;2023-01-29T11:01:44;97249.09;;;4.73;75.20
52591;BME280;38483;42.620;25.394;2023-01-29T11:04:12;97239.28;;;4.50;77.58
52591;BME280;38483;42.620;25.394;2023-01-29T11:06:40;97229.38;;;4.32;79.22
52591;BME280;38483;42.620;25.394;2023-01-29T11:09:15;97231.03;;;4.36;78.79
52591;BME280;38483;42.620;25.394;2023-01-29T11:12:19;97233.31;;;4.51;79.53
52591;BME280;38483;42.620;25.394;2023-01-29T11:14:50;97232.19;;;4.64;79.92
52591;BME280;38483;42.620;25.394;2023-01-29T11:17:21;97224.44;;;4.67;79.95
52591;BME280;38483;42.620;25.394;2023-01-29T11:19:51;97241.06;;;4.89;77.90
52591;BME280;38483;42.620;25.394;2023-01-29T11:22:26;97240.25;;;4.87;76.67
52591;BME280;38483;42.620;25.394;2023-01-29T11:25:29;97229.44;;;5.15;75.70
52591;BME280;38483;42.620;25.394;2023-01-29T11:27:59;97232.94;;;5.11;75.75
52591;BME280;38483;42.620;25.394;2023-01-29T11:30:36;97213.88;;;4.81;76.03
52591;BME280;38483;42.620;25.394;2023-01-29T11:35:31;97215.53;;;4.42;78.20
52591;BME280;38483;42.620;25.394;2023-01-29T11:38:26;97225.50;;;4.57;79.76
52591;BME280;38483;42.620;25.394;2023-01-29T11:41:05;97226.19;;;4.64;80.33
52591;BME280;38483;42.620;25.394;2023-01-29T11:43:32;97211.75;;;4.16;81.07
52591;BME280;38483;42.620;25.394;2023-01-29T11:46:04;97207.38;;;4.21;82.22
52591;BME280;38483;42.620;25.394;2023-01-29T11:51:20;97223.94;;;4.03;83.17
52591;BME280;38483;42.620;25.394;2023-01-29T11:53:52;97215.16;;;4.14;82.87
52591;BME280;38483;42.620;25.394;2023-01-29T11:56:33;97213.00;;;3.92;83.39
52591;BME280;38483;42.620;25.394;2023-01-29T11:59:05;97219.72;;;3.99;83.81
52591;BME280;38483;42.620;25.394;2023-01-29T12:01:40;97213.00;;;3.93;83.67
52591;BME280;38483;42.620;25.394;2023-01-29T12:04:17;97210.16;;;4.10;83.20
52591;BME280;38483;42.620;25.394;2023-01-29T12:06:47;97202.28;;;4.19;82.74
52591;BME280;38483;42.620;25.394;2023-01-29T12:09:23;97203.94;;;4.22;82.31
52591;BME280;38483;42.620;25.394;2023-01-29T12:11:53;97201.94;;;4.37;81.07
52591;BME280;38483;42.620;25.394;2023-01-29T12:14:31;97199.94;;;4.07;82.87
52591;BME280;38483;42.620;25.394;2023-01-29T12:19:42;97203.66;;;4.37;81.87
52591;BME280;38483;42.620;25.394;2023-01-29T12:22:26;97211.91;;;4.52;81.34
52591;BME280;38483;42.620;25.394;2023-01-29T12:25:20;97215.00;;;4.69;81.09
52591;BME280;38483;42.620;25.394;2023-01-29T12:30:42;97201.34;;;4.67;77.35
52591;BME280;38483;42.620;25.394;2023-01-29T12:35:50;97217.16;;;4.46;71.30
52591;BME280;38483;42.620;25.394;2023-01-29T12:38:21;97197.69;;;4.36;69.88
52591;BME280;38483;42.620;25.394;2023-01-29T12:41:03;97208.00;;;4.33;70.48
52591;BME280;38483;42.620;25.394;2023-01-29T12:43:37;97207.22;;;4.30;70.25
52591;BME280;38483;42.620;25.394;2023-01-29T12:46:10;97202.38;;;4.13;71.12
52591;BME280;38483;42.620;25.394;2023-01-29T12:48:42;97200.00;;;4.02;71.25
52591;BME280;38483;42.620;25.394;2023-01-29T12:51:19;97209.50;;;3.96;72.12
52591;BME280;38483;42.620;25.394;2023-01-29T12:53:56;97194.84;;;4.04;71.86
52591;BME280;38483;42.620;25.394;2023-01-29T12:56:34;97205.72;;;4.18;72.21
52591;BME280;38483;42.620;25.394;2023-01-29T12:59:27;97213.06;;;3.89;72.33
52591;BME280;38483;42.620;25.394;2023-01-29T13:02:09;97218.22;;;3.86;72.61
52591;BME280;38483;42.620;25.394;2023-01-29T13:04:42;97203.03;;;3.77;72.68
52591;BME280;38483;42.620;25.394;2023-01-29T13:07:21;97223.53;;;3.77;73.25
52591;BME280;38483;42.620;25.394;2023-01-29T13:09:53;97208.34;;;3.65;73.21
52591;BME280;38483;42.620;25.394;2023-01-29T13:12:23;97222.00;;;3.67;72.93
52591;BME280;38483;42.620;25.394;2023-01-29T13:14:56;97209.94;;;3.72;73.06
52591;BME280;38483;42.620;25.394;2023-01-29T13:17:40;97219.47;;;3.64;72.20
52591;BME280;38483;42.620;25.394;2023-01-29T13:20:31;97214.22;;;3.71;72.77
52591;BME280;38483;42.620;25.394;2023-01-29T13:23:21;97207.34;;;3.73;72.19
52591;BME280;38483;42.620;25.394;2023-01-29T13:25:51;97190.47;;;3.62;72.04
52591;BME280;38483;42.620;25.394;2023-01-29T13:28:22;97225.28;;;3.73;72.53
52591;BME280;38483;42.620;25.394;2023-01-29T13:33:42;97227.94;;;3.69;72.51
52591;BME280;38483;42.620;25.394;2023-01-29T13:36:24;97211.78;;;3.64;72.14
52591;BME280;38483;42.620;25.394;2023-01-29T13:39:02;97220.16;;;3.75;72.28
52591;BME280;38483;42.620;25.394;2023-01-29T13:41:39;97203.94;;;3.74;72.37
52591;BME280;38483;42.620;25.394;2023-01-29T13:44:21;97219.22;;;3.79;71.75
52591;BME280;38483;42.620;25.394;2023-01-29T13:47:00;97208.84;;;3.86;72.09
52591;BME280;38483;42.620;25.394;2023-01-29T14:13:48;97219.63;;;4.05;71.25
52591;BME280;38483;42.620;25.394;2023-01-29T14:19:16;97226.13;;;4.23;70.84
52591;BME280;38483;42.620;25.394;2023-01-29T14:21:48;97215.28;;;4.10;70.88
52591;BME280;38483;42.620;25.394;2023-01-29T14:24:29;97223.06;;;4.02;71.56
52591;BME280;38483;42.620;25.394;2023-01-29T14:26:58;97218.06;;;3.96;71.36
52591;BME280;38483;42.620;25.394;2023-01-29T14:29:34;97218.97;;;3.92;70.65
52591;BME280;38483;42.620;25.394;2023-01-29T14:32:16;97229.38;;;3.85;70.76
52591;BME280;38483;42.620;25.394;2023-01-29T14:35:25;97227.59;;;3.88;71.54
52591;BME280;38483;42.620;25.394;2023-01-29T14:38:03;97237.16;;;3.79;70.93
52591;BME280;38483;42.620;25.394;2023-01-29T14:40:35;97226.78;;;3.86;71.10
52591;BME280;38483;42.620;25.394;2023-01-29T14:43:14;97234.59;;;3.79;70.98
52591;BME280;38483;42.620;25.394;2023-01-29T14:45:48;97223.53;;;3.75;71.36
52591;BME280;38483;42.620;25.394;2023-01-29T14:48:44;97229.56;;;3.73;72.08
52591;BME280;38483;42.620;25.394;2023-01-29T14:51:14;97227.19;;;3.61;72.85
52591;BME280;38483;42.620;25.394;2023-01-29T14:53:53;97228.75;;;3.71;73.01
52591;BME280;38483;42.620;25.394;2023-01-29T14:56:38;97233.34;;;3.49;73.24
52591;BME280;38483;42.620;25.394;2023-01-29T14:59:18;97239.25;;;3.53;72.85
52591;BME280;38483;42.620;25.394;2023-01-29T15:01:52;97236.81;;;3.45;72.91
52591;BME280;38483;42.620;25.394;2023-01-29T15:04:52;97241.09;;;3.45;73.00
52591;BME280;38483;42.620;25.394;2023-01-29T15:08:02;97241.16;;;3.39;73.39
52591;BME280;38483;42.620;25.394;2023-01-29T15:10:39;97242.81;;;3.43;72.78
52591;BME280;38483;42.620;25.394;2023-01-29T15:15:53;97236.03;;;3.40;73.39
52591;BME280;38483;42.620;25.394;2023-01-29T15:18:30;97238.50;;;3.48;73.88
52591;BME280;38483;42.620;25.394;2023-01-29T15:21:02;97235.06;;;3.47;72.74
52591;BME280;38483;42.620;25.394;2023-01-29T15:23:33;97257.31;;;3.42;72.98
52591;BME280;38483;42.620;25.394;2023-01-29T15:26:02;97238.56;;;3.43;72.95
52591;BME280;38483;42.620;25.394;2023-01-29T15:28:32;97247.09;;;3.42;72.72
52591;BME280;38483;42.620;25.394;2023-01-29T15:31:03;97244.53;;;3.42;72.76
52591;BME280;38483;42.620;25.394;2023-01-29T15:33:32;97255.72;;;3.37;72.50
52591;BME280;38483;42.620;25.394;2023-01-29T15:36:02;97254.69;;;3.47;72.92
52591;BME280;38483;42.620;25.394;2023-01-29T15:38:34;97259.72;;;3.54;72.46
52591;BME280;38483;42.620;25.394;2023-01-29T15:41:14;97257.19;;;3.51;71.53
52591;BME280;38483;42.620;25.394;2023-01-29T15:43:44;97246.91;;;3.56;71.28
52591;BME280;38483;42.620;25.394;2023-01-29T15:46:26;97247.78;;;3.53;71.72